Time,TemperatureF,DewpointF,PressureIn,WindDirection,WindDirectionDegrees,WindSpeedMPH,WindSpeedGustMPH,Humidity,HourlyPrecipIn,Conditions,Clouds,dailyrainin,SolarRadiationWatts/m^2,SoftwareType,DateUTC
2013-01-26 00:05:00,52.8,50.0,30.05,NE,35,0.0,0.0,89,0.00,,,0.00,0,weatherlink.com 1.10,2013-01-26 08:05:00,
2013-01-26 00:20:00,52.3,50.0,30.04,NE,35,0.0,0.0,90,0.00,,,0.00,0,weatherlink.com 1.10,2013-01-26 08:20:00,
2013-01-26 00:35:00,52.0,49.0,30.04,NE,34,0.0,0.0,90,0.00,,,0.00,0,weatherlink.com 1.10,2013-01-26 08:35:00,
2013-01-26 00:50:00,51.9,49.0,30.03,NE,35,0.0,1.0,91,0.00,,,0.00,0,weatherlink.com 1.10,2013-01-26 08:50:00,
2013-01-26 01:05:00,51.5,49.0,30.03,NE,35,0.0,0.0,91,0.00,,,0.00,0,weatherlink.com 1.10,2013-01-26 09:05:00,
2013-01-26 01:20:00,51.3,49.0,30.02,NE,35,0.0,0.0,92,0.00,,,0.00,0,weatherlink.com 1.10,2013-01-26 09:20:00,
2013-01-26 01:35:00,50.9,48.0,30.03,NE,35,0.0,0.0,91,0.00,,,0.00,0,weatherlink.com 1.10,2013-01-26 09:35:00,
2013-01-26 01:50:00,50.6,48.0,30.03,NE,35,0.0,0.0,92,0.00,,,0.00,0,weatherlink.com 1.10,2013-01-26 09:50:00,
2013-01-26 02:05:00,50.8,49.0,30.03,NE,35,0.0,0.0,93,0.00,,,0.00,0,weatherlink.com 1.10,2013-01-26 10:05:00,
2013-01-26 02:20:00,51.0,49.0,30.03,NE,35,0.0,0.0,93,0.00,,,0.00,0,weatherlink.com 1.10,2013-01-26 10:20:00,
2013-01-26 02:35:00,50.7,49.0,30.03,NE,35,0.0,0.0,93,0.00,,,0.00,0,weatherlink.com 1.10,2013-01-26 10:35:00,
2013-01-26 02:50:00,50.4,49.0,30.02,NE,35,0.0,0.0,93,0.00,,,0.00,0,weatherlink.com 1.10,2013-01-26 10:50:00,
2013-01-26 03:05:00,50.4,49.0,30.02,NE,35,0.0,1.0,93,0.00,,,0.00,0,weatherlink.com 1.10,2013-01-26 11:05:00,
2013-01-26 03:20:00,50.4,49.0,30.02,NE,35,0.0,0.0,93,0.00,,,0.00,0,weatherlink.com 1.10,2013-01-26 11:20:00,
2013-01-26 03:35:00,50.1,48.0,30.01,NE,35,0.0,0.0,92,0.00,,,0.00,0,weatherlink.com 1.10,2013-01-26 11:35:00,
2013-01-26 03:50:00,49.9,48.0,30.01,NE,35,0.0,2.0,93,0.00,,,0.00,0,weatherlink.com 1.10,2013-01-26 11:50:00,
2013-01-26 04:05:00,49.8,48.0,30.01,NE,35,0.0,1.0,93,0.00,,,0.00,0,weatherlink.com 1.10,2013-01-26 12:05:00,
2013-01-26 04:20:00,49.6,47.0,30.01,NE,35,0.0,0.0,92,0.00,,,0.00,0,weatherlink.com 1.10,2013-01-26 12:20:00,
2013-01-26 04:35:00,49.5,47.0,30.01,NE,35,0.0,1.0,92,0.00,,,0.00,0,weatherlink.com 1.10,2013-01-26 12:35:00,
2013-01-26 04:50:00,49.3,47.0,30.01,NE,35,0.0,0.0,92,0.00,,,0.00,0,weatherlink.com 1.10,2013-01-26 12:50:00,
2013-01-26 05:05:00,49.4,48.0,30.01,NE,35,0.0,1.0,93,0.00,,,0.00,0,weatherlink.com 1.10,2013-01-26 13:05:00,
2013-01-26 05:20:00,49.3,47.0,30.01,NE,35,0.0,1.0,93,0.00,,,0.00,0,weatherlink.com 1.10,2013-01-26 13:20:00,
2013-01-26 05:35:00,49.2,47.0,30.01,NE,35,0.0,0.0,93,0.00,,,0.00,0,weatherlink.com 1.10,2013-01-26 13:35:00,
2013-01-26 05:50:00,49.0,47.0,30.01,NE,35,0.0,0.0,93,0.00,,,0.00,0,weatherlink.com 1.10,2013-01-26 13:50:00,
2013-01-26 06:05:00,49.6,48.0,30.01,ESE,103,0.0,2.0,94,0.00,,,0.00,0,weatherlink.com 1.10,2013-01-26 14:05:00,
2013-01-26 06:20:00,49.9,48.0,30.01,SSE,157,3.0,4.0,94,0.00,,,0.00,0,weatherlink.com 1.10,2013-01-26 14:20:00,
2013-01-26 06:35:00,49.8,48.0,30.00,SSE,157,1.0,3.0,93,0.00,,,0.00,0,weatherlink.com 1.10,2013-01-26 14:35:00,
2013-01-26 06:50:00,49.8,48.0,30.01,SE,146,0.0,3.0,94,0.00,,,0.00,0,weatherlink.com 1.10,2013-01-26 14:50:00,
2013-01-26 07:05:00,50.0,48.0,30.01,South,170,0.0,3.0,94,0.00,,,0.00,0,weatherlink.com 1.10,2013-01-26 15:05:00,
2013-01-26 07:20:00,49.9,48.0,30.01,SSE,161,1.0,6.0,94,0.00,,,0.00,0,weatherlink.com 1.10,2013-01-26 15:20:00,
2013-01-26 07:35:00,50.2,49.0,30.01,SE,140,2.0,4.0,94,0.00,,,0.00,9,weatherlink.com 1.10,2013-01-26 15:35:00,
2013-01-26 07:50:00,50.4,49.0,30.01,SSE,164,1.0,4.0,94,0.00,,,0.00,7,weatherlink.com 1.10,2013-01-26 15:50:00,
2013-01-26 08:05:00,50.5,49.0,30.01,SE,140,3.0,5.0,95,0.00,,,0.00,12,weatherlink.com 1.10,2013-01-26 16:05:00,
2013-01-26 08:20:00,50.7,49.0,30.02,South,175,1.0,2.0,95,0.00,,,0.00,32,weatherlink.com 1.10,2013-01-26 16:20:00,
2013-01-26 08:35:00,50.9,50.0,30.02,SSE,147,1.0,3.0,95,0.00,,,0.00,70,weatherlink.com 1.10,2013-01-26 16:35:00,
2013-01-26 08:50:00,51.3,50.0,30.02,South,180,1.0,3.0,95,0.00,,,0.00,86,weatherlink.com 1.10,2013-01-26 16:50:00,
2013-01-26 09:05:00,51.0,49.0,30.02,North,349,0.0,2.0,92,0.00,,,0.00,95,weatherlink.com 1.10,2013-01-26 17:05:00,
2013-01-26 09:20:00,52.8,49.0,30.02,SW,214,0.0,2.0,86,0.00,,,0.00,345,weatherlink.com 1.10,2013-01-26 17:20:00,
2013-01-26 09:36:00,54.7,49.0,30.02,SSW,196,0.0,2.0,80,0.00,,,0.00,302,weatherlink.com 1.10,2013-01-26 17:36:00,
2013-01-26 09:51:00,56.2,48.0,30.02,SW,223,0.0,4.0,74,0.00,,,0.00,385,weatherlink.com 1.10,2013-01-26 17:51:00,
2013-01-26 10:06:00,57.6,48.0,30.03,NNE,13,0.0,4.0,70,0.00,,,0.00,452,weatherlink.com 1.10,2013-01-26 18:06:00,
2013-01-26 10:21:00,58.0,48.0,30.03,SW,234,0.0,3.0,70,0.00,,,0.00,459,weatherlink.com 1.10,2013-01-26 18:21:00,
2013-01-26 10:36:00,58.9,47.0,30.03,SSW,192,0.0,6.0,66,0.00,,,0.00,555,weatherlink.com 1.10,2013-01-26 18:36:00,
2013-01-26 10:51:00,59.0,45.0,30.03,North,11,2.0,4.0,61,0.00,,,0.00,540,weatherlink.com 1.10,2013-01-26 18:51:00,
2013-01-26 11:06:00,59.6,45.0,30.03,NNE,17,2.0,4.0,58,0.00,,,0.00,376,weatherlink.com 1.10,2013-01-26 19:06:00,
2013-01-26 11:21:00,60.4,42.0,30.02,SSW,204,0.0,4.0,52,0.00,,,0.00,587,weatherlink.com 1.10,2013-01-26 19:21:00,
2013-01-26 11:36:00,60.0,40.0,30.02,South,180,1.0,4.0,48,0.00,,,0.00,599,weatherlink.com 1.10,2013-01-26 19:36:00,
2013-01-26 11:51:00,61.3,42.0,30.01,NE,42,1.0,4.0,49,0.00,,,0.00,615,weatherlink.com 1.10,2013-01-26 19:51:00,
2013-01-26 12:06:00,60.2,40.0,30.00,WSW,257,1.0,6.0,48,0.00,,,0.00,621,weatherlink.com 1.10,2013-01-26 20:06:00,
2013-01-26 12:21:00,60.2,39.0,30.00,North,355,1.0,6.0,46,0.00,,,0.00,622,weatherlink.com 1.10,2013-01-26 20:21:00,
2013-01-26 12:36:00,60.9,40.0,30.00,SW,234,1.0,3.0,47,0.00,,,0.00,624,weatherlink.com 1.10,2013-01-26 20:36:00,
2013-01-26 12:51:00,60.6,42.0,29.99,NNE,16,0.0,5.0,50,0.00,,,0.00,615,weatherlink.com 1.10,2013-01-26 20:51:00,
2013-01-26 13:06:00,60.7,42.0,29.99,NNE,29,2.0,4.0,51,0.00,,,0.00,619,weatherlink.com 1.10,2013-01-26 21:06:00,
2013-01-26 13:21:00,61.2,43.0,29.99,SSW,206,1.0,4.0,52,0.00,,,0.00,605,weatherlink.com 1.10,2013-01-26 21:21:00,
2013-01-26 13:36:00,60.6,42.0,29.99,WSW,252,1.0,5.0,51,0.00,,,0.00,577,weatherlink.com 1.10,2013-01-26 21:36:00,
2013-01-26 13:51:00,61.3,43.0,29.99,NNE,22,1.0,4.0,51,0.00,,,0.00,557,weatherlink.com 1.10,2013-01-26 21:51:00,
2013-01-26 14:06:00,60.3,42.0,29.99,SSE,168,1.0,6.0,51,0.00,,,0.00,538,weatherlink.com 1.10,2013-01-26 22:06:00,
2013-01-26 14:21:00,60.9,42.0,29.99,SSW,194,0.0,5.0,50,0.00,,,0.00,510,weatherlink.com 1.10,2013-01-26 22:21:00,
2013-01-26 14:36:00,60.2,41.0,29.99,NNE,19,1.0,7.0,50,0.00,,,0.00,483,weatherlink.com 1.10,2013-01-26 22:36:00,
2013-01-26 14:51:00,59.6,41.0,29.99,SSW,203,0.0,4.0,51,0.00,,,0.00,448,weatherlink.com 1.10,2013-01-26 22:51:00,
2013-01-26 15:06:00,59.3,41.0,29.99,West,268,2.0,6.0,51,0.00,,,0.00,411,weatherlink.com 1.10,2013-01-26 23:06:00,
2013-01-26 15:21:00,58.8,40.0,29.99,NNE,23,1.0,5.0,50,0.00,,,0.00,373,weatherlink.com 1.10,2013-01-26 23:21:00,
2013-01-26 15:36:00,58.2,40.0,30.00,SSW,211,1.0,7.0,51,0.00,,,0.00,330,weatherlink.com 1.10,2013-01-26 23:36:00,
2013-01-26 15:51:00,57.2,40.0,29.99,West,275,0.0,5.0,53,0.00,,,0.00,283,weatherlink.com 1.10,2013-01-26 23:51:00,
2013-01-26 16:06:00,57.3,41.0,29.99,NW,323,3.0,6.0,54,0.00,,,0.00,229,weatherlink.com 1.10,2013-01-27 00:06:00,
2013-01-26 16:21:00,56.1,39.0,30.00,NNE,19,2.0,5.0,54,0.00,,,0.00,169,weatherlink.com 1.10,2013-01-27 00:21:00,
2013-01-26 16:36:00,54.9,40.0,29.99,North,355,1.0,4.0,57,0.00,,,0.00,109,weatherlink.com 1.10,2013-01-27 00:36:00,
2013-01-26 16:51:00,53.8,40.0,30.00,NNE,30,0.0,7.0,59,0.00,,,0.00,63,weatherlink.com 1.10,2013-01-27 00:51:00,
2013-01-26 17:06:00,53.1,40.0,30.00,ESE,105,0.0,4.0,61,0.00,,,0.00,23,weatherlink.com 1.10,2013-01-27 01:06:00,
2013-01-26 17:21:00,52.0,40.0,30.00,NNE,14,0.0,4.0,63,0.00,,,0.00,7,weatherlink.com 1.10,2013-01-27 01:21:00,
2013-01-26 17:36:00,50.9,40.0,30.00,North,11,0.0,5.0,66,0.00,,,0.00,0,weatherlink.com 1.10,2013-01-27 01:36:00,
2013-01-26 17:51:00,50.3,40.0,30.01,SSW,208,0.0,5.0,68,0.00,,,0.00,0,weatherlink.com 1.10,2013-01-27 01:51:00,
2013-01-26 18:06:00,49.6,40.0,30.01,South,190,0.0,6.0,70,0.00,,,0.00,0,weatherlink.com 1.10,2013-01-27 02:06:00,
2013-01-26 18:21:00,49.3,40.0,30.02,NNE,15,1.0,6.0,71,0.00,,,0.00,0,weatherlink.com 1.10,2013-01-27 02:21:00,
2013-01-26 18:36:00,49.0,41.0,30.02,WNW,290,0.0,4.0,73,0.00,,,0.00,0,weatherlink.com 1.10,2013-01-27 02:36:00,
2013-01-26 18:51:00,48.6,40.0,30.03,NNE,24,0.0,2.0,72,0.00,,,0.00,0,weatherlink.com 1.10,2013-01-27 02:51:00,
2013-01-26 19:06:00,48.3,40.0,30.03,NNE,18,0.0,5.0,73,0.00,,,0.00,0,weatherlink.com 1.10,2013-01-27 03:06:00,
2013-01-26 19:21:00,48.0,40.0,30.03,East,81,0.0,2.0,75,0.00,,,0.00,0,weatherlink.com 1.10,2013-01-27 03:21:00,
2013-01-26 19:36:00,47.9,41.0,30.04,North,5,2.0,4.0,77,0.00,,,0.00,0,weatherlink.com 1.10,2013-01-27 03:36:00,
2013-01-26 19:51:00,47.8,41.0,30.04,NW,317,0.0,5.0,78,0.00,,,0.00,0,weatherlink.com 1.10,2013-01-27 03:51:00,
2013-01-26 20:06:00,47.5,41.0,30.05,North,11,1.0,4.0,78,0.00,,,0.00,0,weatherlink.com 1.10,2013-01-27 04:06:00,
2013-01-26 20:22:00,47.5,41.0,30.05,NNE,28,0.0,7.0,78,0.00,,,0.00,0,weatherlink.com 1.10,2013-01-27 04:22:00,
2013-01-26 20:37:00,47.4,41.0,30.04,North,360,0.0,4.0,77,0.00,,,0.00,0,weatherlink.com 1.10,2013-01-27 04:37:00,
2013-01-26 20:52:00,47.4,40.0,30.05,NNW,342,4.0,4.0,75,0.00,,,0.00,0,weatherlink.com 1.10,2013-01-27 04:52:00,
2013-01-26 21:07:00,47.0,39.0,30.05,SW,232,0.0,2.0,74,0.00,,,0.00,0,weatherlink.com 1.10,2013-01-27 05:07:00,
2013-01-26 21:22:00,46.8,39.0,30.06,North,355,0.0,2.0,75,0.00,,,0.00,0,weatherlink.com 1.10,2013-01-27 05:22:00,
2013-01-26 21:37:00,46.6,39.0,30.06,NNE,30,0.0,4.0,74,0.00,,,0.00,0,weatherlink.com 1.10,2013-01-27 05:37:00,
2013-01-26 21:52:00,46.7,40.0,30.06,NNE,17,0.0,3.0,76,0.00,,,0.00,0,weatherlink.com 1.10,2013-01-27 05:52:00,
2013-01-26 22:07:00,46.7,40.0,30.07,NNE,25,1.0,2.0,77,0.00,,,0.00,0,weatherlink.com 1.10,2013-01-27 06:07:00,
2013-01-26 22:22:00,46.6,40.0,30.07,NNE,17,0.0,3.0,78,0.00,,,0.00,0,weatherlink.com 1.10,2013-01-27 06:22:00,
2013-01-26 22:37:00,46.4,40.0,30.07,NNE,22,0.0,2.0,79,0.00,,,0.00,0,weatherlink.com 1.10,2013-01-27 06:37:00,
2013-01-26 22:52:00,45.9,40.0,30.07,ENE,75,0.0,1.0,80,0.00,,,0.00,0,weatherlink.com 1.10,2013-01-27 06:52:00,
2013-01-26 23:07:00,45.5,40.0,30.08,ENE,74,0.0,1.0,82,0.00,,,0.00,0,weatherlink.com 1.10,2013-01-27 07:07:00,
2013-01-26 23:22:00,45.1,40.0,30.08,SSW,210,0.0,1.0,82,0.00,,,0.00,0,weatherlink.com 1.10,2013-01-27 07:22:00,
2013-01-26 23:37:00,44.9,40.0,30.08,NW,309,0.0,1.0,83,0.00,,,0.00,0,weatherlink.com 1.10,2013-01-27 07:37:00,
2013-01-26 23:52:00,45.1,40.0,30.08,North,355,0.0,2.0,82,0.00,,,0.00,0,weatherlink.com 1.10,2013-01-27 07:52:00,